Gulbeniz A — TCZK8 — position and weather

sailwx.info

Track history (hours):
 
Tides and Currents Weather Stations Pressure Air Temp Water Temp Dewpoint Dewpoint Depression Visibility Wind Speed Wind Dir Waves Ship Positions

Gulbeniz A

Last reported at 2014-Nov-24 18:10 UTC. Time now 2014-Nov-26 02:49 UTC.
Position N 35°59' W 005°30'.

Length 210 m; draft 11.4 m.

Type: Ship (hazmat cat A). MMSI: 271042493.

Date/timePositionNaut miles runAvg speedWind from/ knotsBaromVisibWave heightAir tempDewpointWater temp
2014-Nov-24 18:10N 35°59' W 005°30'712.0
2014-Nov-24 17:34N 36°05' W 005°24'5 1.7
2014-Nov-24 14:33N 36°10' W 005°25'0 0.1
2014-Nov-24 11:33N 36°10' W 005°25'2 1.6
2014-Nov-24 10:31N 36°08' W 005°25'0 0.0
2014-Nov-24 09:13N 36°08' W 005°25'0 0.0
2014-Nov-24 08:28N 36°08' W 005°25'0 0.0
2014-Nov-24 07:31N 36°08' W 005°25'0 0.0
2014-Nov-24 06:07N 36°08' W 005°25'0 0.0
2014-Nov-24 05:25N 36°08' W 005°25'0 0.0
2014-Nov-24 04:16N 36°08' W 005°25'0 0.0
2014-Nov-24 03:31N 36°08' W 005°25'0 0.0
2014-Nov-24 02:19N 36°08' W 005°25'0 0.0
2014-Nov-24 01:31N 36°08' W 005°25'0 0.0
2014-Nov-24 00:31N 36°08' W 005°25'0 0.0
2014-Nov-23 23:28N 36°08' W 005°25'0 0.0
2014-Nov-23 22:31N 36°08' W 005°25'1 1.3
2014-Nov-23 21:33N 36°09' W 005°24'1 1.3
2014-Nov-23 20:31N 36°10' W 005°23'0 0.0
2014-Nov-23 19:31N 36°10' W 005°23'0 0.1
2014-Nov-23 18:31N 36°10' W 005°23'0 0.1
2014-Nov-23 17:16N 36°10' W 005°23'0 0.1
2014-Nov-23 16:28N 36°10' W 005°23'0 0.0
2014-Nov-23 15:28N 36°10' W 005°23'0 0.0
2014-Nov-23 14:31N 36°10' W 005°23'0 0.0
2014-Nov-23 10:28N 36°10' W 005°23'0 0.0
2014-Nov-23 07:28N 36°10' W 005°23'0 0.0
2014-Nov-23 06:19N 36°10' W 005°23'0 0.0
2014-Nov-23 05:28N 36°10' W 005°23'0 0.0
2014-Nov-23 02:19N 36°10' W 005°23'0 0.0
2014-Nov-22 20:25N 36°10' W 005°23'0 0.1
2014-Nov-22 19:23N 36°10' W 005°23'2 2.4
2014-Nov-22 18:33N 36°08' W 005°24'4 4.0
2014-Nov-22 17:33N 36°04' W 005°22'7 6.8
2014-Nov-22 16:33N 35°58' W 005°27'1 0.1
2014-Nov-22 04:20N 35°59' W 005°26'911.1
2014-Nov-22 03:33N 36°01' W 005°16'212 4.7
2014-Nov-20 06:26N 37°11' W 001°06'1315.3
2014-Nov-20 05:33N 37°20' W 000°54'1615.4
2014-Nov-20 04:30N 37°31' W 000°38'1415.0
2014-Nov-20 03:33N 37°42' W 000°27'1614.7
2014-Nov-20 02:28N 37°55' W 000°16'8612.4
2014-Nov-19 19:30N 39°21' W 000°10'9 9.4
2014-Nov-19 18:33N 39°27' W 000°19'0 0.0
2014-Nov-19 17:27N 39°27' W 000°19'0 0.0
2014-Nov-19 16:21N 39°27' W 000°19'0 0.0
2014-Nov-19 15:33N 39°27' W 000°19'0 0.0
2014-Nov-19 14:33N 39°27' W 000°19'0 0.0
2014-Nov-19 13:27N 39°27' W 000°19'0 0.0
2014-Nov-19 12:15N 39°27' W 000°19'0 0.0
2014-Nov-19 11:33N 39°27' W 000°19'0 0.0
2014-Nov-19 10:33N 39°27' W 000°19'0 0.0
2014-Nov-19 09:21N 39°27' W 000°19'0 0.0
2014-Nov-19 08:33N 39°27' W 000°19'0 0.0
2014-Nov-19 07:33N 39°27' W 000°19'0 0.0
2014-Nov-19 06:33N 39°27' W 000°19'0 0.0
2014-Nov-19 05:33N 39°27' W 000°19'0 0.0
2014-Nov-19 04:33N 39°27' W 000°19'0 0.0
2014-Nov-19 03:33N 39°27' W 000°19'0 0.0
2014-Nov-19 02:33N 39°27' W 000°19'0 0.0
2014-Nov-19 01:33N 39°27' W 000°19'0 0.0
2014-Nov-19 00:33N 39°27' W 000°19'0 0.0
2014-Nov-18 23:33N 39°27' W 000°19'0 0.0
2014-Nov-18 22:34N 39°27' W 000°19'0 0.0
2014-Nov-18 21:34N 39°27' W 000°19'0 0.0
2014-Nov-18 20:33N 39°27' W 000°19'0 0.0
2014-Nov-18 19:34N 39°27' W 000°19'1 0.6
2014-Nov-18 18:34N 39°26' W 000°19'6 6.3
2014-Nov-18 17:34N 39°29' W 000°12'92 3.3
2014-Nov-17 13:33N 40°40' E 001°07'1413.7
2014-Nov-17 12:32N 40°26' E 001°02'1313.7
2014-Nov-17 11:33N 40°13' E 000°58'1413.5
2014-Nov-17 10:33N 39°60' E 000°57'15512.9
2014-Nov-16 22:31N 37°39' W 000°26'1313.0
2014-Nov-16 21:33N 37°30' W 000°36'1313.4
2014-Nov-16 20:33N 37°21' W 000°49'22214.6
2014-Nov-16 05:20N 36°02' W 005°08'1417.9
2014-Nov-16 04:33N 35°58' W 005°25'  
Track history (hours):
 
Tides and Currents Weather Stations Pressure Air Temp Water Temp Dewpoint Dewpoint Depression Visibility Wind Speed Wind Dir Waves Ship Positions

Gulbeniz A

Last reported at 2014-Nov-24 18:10 UTC. Time now 2014-Nov-26 02:49 UTC.
Position N 35°59' W 005°30'.

Length 210 m; draft 11.4 m.

Type: Ship (hazmat cat A). MMSI: 271042493.

Date/timePositionNaut miles runAvg speedWind from/ knotsBaromVisibWave heightAir tempDewpointWater temp
2014-Nov-24 18:10N 35°59' W 005°30'712.0
2014-Nov-24 17:34N 36°05' W 005°24'5 1.7
2014-Nov-24 14:33N 36°10' W 005°25'0 0.1
2014-Nov-24 11:33N 36°10' W 005°25'2 1.6
2014-Nov-24 10:31N 36°08' W 005°25'0 0.0
2014-Nov-24 09:13N 36°08' W 005°25'0 0.0
2014-Nov-24 08:28N 36°08' W 005°25'0 0.0
2014-Nov-24 07:31N 36°08' W 005°25'0 0.0
2014-Nov-24 06:07N 36°08' W 005°25'0 0.0
2014-Nov-24 05:25N 36°08' W 005°25'0 0.0
2014-Nov-24 04:16N 36°08' W 005°25'0 0.0
2014-Nov-24 03:31N 36°08' W 005°25'0 0.0
2014-Nov-24 02:19N 36°08' W 005°25'0 0.0
2014-Nov-24 01:31N 36°08' W 005°25'0 0.0
2014-Nov-24 00:31N 36°08' W 005°25'0 0.0
2014-Nov-23 23:28N 36°08' W 005°25'0 0.0
2014-Nov-23 22:31N 36°08' W 005°25'1 1.3
2014-Nov-23 21:33N 36°09' W 005°24'1 1.3
2014-Nov-23 20:31N 36°10' W 005°23'0 0.0
2014-Nov-23 19:31N 36°10' W 005°23'0 0.1
2014-Nov-23 18:31N 36°10' W 005°23'0 0.1
2014-Nov-23 17:16N 36°10' W 005°23'0 0.1
2014-Nov-23 16:28N 36°10' W 005°23'0 0.0
2014-Nov-23 15:28N 36°10' W 005°23'0 0.0
2014-Nov-23 14:31N 36°10' W 005°23'0 0.0
2014-Nov-23 10:28N 36°10' W 005°23'0 0.0
2014-Nov-23 07:28N 36°10' W 005°23'0 0.0
2014-Nov-23 06:19N 36°10' W 005°23'0 0.0
2014-Nov-23 05:28N 36°10' W 005°23'0 0.0
2014-Nov-23 02:19N 36°10' W 005°23'0 0.0
2014-Nov-22 20:25N 36°10' W 005°23'0 0.1
2014-Nov-22 19:23N 36°10' W 005°23'2 2.4
2014-Nov-22 18:33N 36°08' W 005°24'4 4.0
2014-Nov-22 17:33N 36°04' W 005°22'7 6.8
2014-Nov-22 16:33N 35°58' W 005°27'1 0.1
2014-Nov-22 04:20N 35°59' W 005°26'911.1
2014-Nov-22 03:33N 36°01' W 005°16'212 4.7
2014-Nov-20 06:26N 37°11' W 001°06'1315.3
2014-Nov-20 05:33N 37°20' W 000°54'1615.4
2014-Nov-20 04:30N 37°31' W 000°38'1415.0
2014-Nov-20 03:33N 37°42' W 000°27'1614.7
2014-Nov-20 02:28N 37°55' W 000°16'8612.4
2014-Nov-19 19:30N 39°21' W 000°10'9 9.4
2014-Nov-19 18:33N 39°27' W 000°19'0 0.0
2014-Nov-19 17:27N 39°27' W 000°19'0 0.0
2014-Nov-19 16:21N 39°27' W 000°19'0 0.0
2014-Nov-19 15:33N 39°27' W 000°19'0 0.0
2014-Nov-19 14:33N 39°27' W 000°19'0 0.0
2014-Nov-19 13:27N 39°27' W 000°19'0 0.0
2014-Nov-19 12:15N 39°27' W 000°19'0 0.0
2014-Nov-19 11:33N 39°27' W 000°19'0 0.0
2014-Nov-19 10:33N 39°27' W 000°19'0 0.0
2014-Nov-19 09:21N 39°27' W 000°19'0 0.0
2014-Nov-19 08:33N 39°27' W 000°19'0 0.0
2014-Nov-19 07:33N 39°27' W 000°19'0 0.0
2014-Nov-19 06:33N 39°27' W 000°19'0 0.0
2014-Nov-19 05:33N 39°27' W 000°19'0 0.0
2014-Nov-19 04:33N 39°27' W 000°19'0 0.0
2014-Nov-19 03:33N 39°27' W 000°19'0 0.0
2014-Nov-19 02:33N 39°27' W 000°19'0 0.0
2014-Nov-19 01:33N 39°27' W 000°19'0 0.0
2014-Nov-19 00:33N 39°27' W 000°19'0 0.0
2014-Nov-18 23:33N 39°27' W 000°19'0 0.0
2014-Nov-18 22:34N 39°27' W 000°19'0 0.0
2014-Nov-18 21:34N 39°27' W 000°19'0 0.0
2014-Nov-18 20:33N 39°27' W 000°19'0 0.0
2014-Nov-18 19:34N 39°27' W 000°19'1 0.6
2014-Nov-18 18:34N 39°26' W 000°19'6 6.3
2014-Nov-18 17:34N 39°29' W 000°12'92 3.3
2014-Nov-17 13:33N 40°40' E 001°07'1413.7
2014-Nov-17 12:32N 40°26' E 001°02'1313.7
2014-Nov-17 11:33N 40°13' E 000°58'1413.5
2014-Nov-17 10:33N 39°60' E 000°57'15512.9
2014-Nov-16 22:31N 37°39' W 000°26'1313.0
2014-Nov-16 21:33N 37°30' W 000°36'1313.4
2014-Nov-16 20:33N 37°21' W 000°49'22214.6
2014-Nov-16 05:20N 36°02' W 005°08'1417.9
2014-Nov-16 04:33N 35°58' W 005°25'  

Dump ship's entire track history